createdAt,value
2022-11-20T00:01:21.599Z,20.23
2022-11-20T00:03:48.648Z,20.20
2022-11-20T00:06:17.777Z,20.10
2022-11-20T00:08:45.094Z,22.13
2022-11-20T00:11:16.919Z,20.20
2022-11-20T00:13:48.762Z,19.35
2022-11-20T00:16:18.378Z,20.63
2022-11-20T00:18:45.831Z,21.35
2022-11-20T00:21:14.962Z,21.92
2022-11-20T00:23:42.528Z,20.27
2022-11-20T00:26:11.627Z,22.85
2022-11-20T00:28:38.519Z,22.05
2022-11-20T00:31:11.300Z,22.15
2022-11-20T00:33:38.166Z,21.00
2022-11-20T00:36:07.834Z,21.65
2022-11-20T00:38:34.974Z,21.55
2022-11-20T00:41:05.710Z,21.45
2022-11-20T00:43:32.247Z,22.08
2022-11-20T00:46:00.147Z,21.52
2022-11-20T00:48:27.137Z,21.73
2022-11-20T00:50:54.548Z,22.83
2022-11-20T00:53:21.996Z,21.02
2022-11-20T00:55:58.496Z,24.00
2022-11-20T00:58:29.128Z,21.63
2022-11-20T01:01:02.114Z,22.40
2022-11-20T01:03:28.904Z,21.13
2022-11-20T01:05:55.355Z,21.13
2022-11-20T01:08:21.912Z,22.42
2022-11-20T01:10:48.396Z,21.92
2022-11-20T01:13:33.301Z,21.70
2022-11-20T01:16:13.781Z,20.77
2022-11-20T01:18:43.131Z,19.98
2022-11-20T01:21:14.044Z,20.67
2022-11-20T01:23:42.796Z,22.20
2022-11-20T01:26:16.754Z,20.98
2022-11-20T01:28:43.863Z,20.23
2022-11-20T01:31:23.669Z,19.27
2022-11-20T01:33:52.497Z,20.65
2022-11-20T01:36:20.861Z,19.15
2022-11-20T01:38:47.696Z,19.30
2022-11-20T01:41:36.098Z,18.98
2022-11-20T01:44:04.867Z,18.60
2022-11-20T01:46:37.734Z,18.58
2022-11-20T01:49:13.169Z,19.63
2022-11-20T01:52:04.031Z,20.25
2022-11-20T01:54:40.430Z,19.67
2022-11-20T01:57:09.946Z,19.85
2022-11-20T01:59:42.818Z,18.65
2022-11-20T02:02:09.383Z,18.75
2022-11-20T02:04:36.537Z,19.50
2022-11-20T02:07:06.151Z,23.92
2022-11-20T02:09:32.741Z,21.42
2022-11-20T02:11:59.889Z,21.77
2022-11-20T02:14:27.418Z,19.40
2022-11-20T02:16:55.995Z,19.40
2022-11-20T02:19:28.832Z,19.58
2022-11-20T02:22:19.464Z,22.02
2022-11-20T02:24:47.138Z,19.17
2022-11-20T02:27:15.042Z,19.42
2022-11-20T02:29:51.570Z,20.55
2022-11-20T02:32:22.166Z,21.42
2022-11-20T02:34:49.867Z,20.17
2022-11-20T02:37:16.877Z,20.63
2022-11-20T02:39:45.656Z,20.88
2022-11-20T02:42:12.170Z,21.52
2022-11-20T02:44:38.722Z,19.70
2022-11-20T02:47:05.428Z,19.33
2022-11-20T02:49:32.227Z,19.60
2022-11-20T02:51:58.726Z,19.42
2022-11-20T02:54:25.892Z,19.83
2022-11-20T02:56:53.262Z,21.05
2022-11-20T02:59:20.173Z,17.17
2022-11-20T03:04:12.258Z,20.53
2022-11-20T03:06:38.812Z,20.92
2022-11-20T03:09:05.262Z,20.92
2022-11-20T03:11:31.803Z,18.88
2022-11-20T03:13:58.277Z,19.73
2022-11-20T03:16:25.051Z,18.40
2022-11-20T03:18:53.388Z,20.50
2022-11-20T03:21:19.861Z,19.10
2022-11-20T03:23:46.349Z,18.98
2022-11-20T03:26:18.309Z,19.27
2022-11-20T03:28:50.615Z,20.35
2022-11-20T03:31:18.871Z,22.10
2022-11-20T03:33:45.687Z,20.80
2022-11-20T03:36:16.455Z,19.25
2022-11-20T03:38:43.377Z,20.58
2022-11-20T03:41:16.489Z,20.83
2022-11-20T03:43:43.019Z,18.77
2022-11-20T03:46:09.697Z,21.65
2022-11-20T03:48:36.241Z,22.17
2022-11-20T03:51:17.726Z,21.35
2022-11-20T03:53:46.246Z,23.33
2022-11-20T03:56:14.442Z,22.55
2022-11-20T03:58:41.968Z,22.25
2022-11-20T04:01:11.406Z,22.73
2022-11-20T04:03:39.693Z,21.77
2022-11-20T04:06:09.642Z,21.75
2022-11-20T04:08:36.173Z,21.52
2022-11-20T04:11:12.777Z,21.40
2022-11-20T04:13:39.933Z,23.17
2022-11-20T04:16:07.766Z,22.27
2022-11-20T04:18:35.016Z,20.48
2022-11-20T04:21:01.886Z,22.65
2022-11-20T04:23:29.105Z,24.65
2022-11-20T04:25:56.033Z,23.27
2022-11-20T04:28:22.546Z,22.05
2022-11-20T04:30:49.043Z,23.75
2022-11-20T04:33:15.659Z,25.38
2022-11-20T04:35:42.178Z,24.48
2022-11-20T04:38:08.689Z,24.73
2022-11-20T04:40:35.704Z,25.85
2022-11-20T04:43:02.202Z,24.52
2022-11-20T04:45:28.701Z,24.52
2022-11-20T04:47:55.279Z,23.27
2022-11-20T04:50:21.775Z,24.23
2022-11-20T04:52:48.244Z,23.65
2022-11-20T04:55:14.774Z,22.20
2022-11-20T04:57:41.306Z,22.65
2022-11-20T05:00:08.478Z,24.73
2022-11-20T05:02:35.094Z,25.27
2022-11-20T05:05:01.688Z,25.20
2022-11-20T05:07:28.221Z,24.98
2022-11-20T05:09:54.691Z,24.15
2022-11-20T05:12:21.212Z,24.20
2022-11-20T05:14:47.685Z,24.75
2022-11-20T05:17:14.395Z,22.83
2022-11-20T05:19:40.900Z,22.52
2022-11-20T05:22:07.403Z,22.13
2022-11-20T05:24:33.926Z,21.75
2022-11-20T05:27:00.414Z,22.42
2022-11-20T05:29:26.992Z,23.08
2022-11-20T05:31:53.506Z,22.05
2022-11-20T05:34:20.055Z,21.70
2022-11-20T05:36:46.564Z,19.55
2022-11-20T05:39:13.161Z,18.77
2022-11-20T05:41:39.703Z,16.52
2022-11-20T05:44:06.204Z,17.17
2022-11-20T05:46:32.771Z,17.00
2022-11-20T05:48:59.718Z,18.42
2022-11-20T05:51:26.852Z,19.60
2022-11-20T05:53:53.472Z,18.33
2022-11-20T05:56:22.260Z,17.40
2022-11-20T05:58:49.678Z,16.65
2022-11-20T06:01:19.462Z,19.30
2022-11-20T06:03:48.602Z,19.02
2022-11-20T06:06:16.373Z,18.92
2022-11-20T06:08:43.033Z,20.17
2022-11-20T06:11:12.023Z,21.80
2022-11-20T06:13:42.090Z,20.45
2022-11-20T06:16:09.781Z,21.70
2022-11-20T06:18:36.368Z,20.08
2022-11-20T06:21:06.817Z,20.50
2022-11-20T06:23:34.695Z,19.15
2022-11-20T06:26:06.188Z,20.92
2022-11-20T06:28:33.130Z,22.85
2022-11-20T06:31:00.132Z,19.50
2022-11-20T06:33:27.097Z,20.60
2022-11-20T06:35:59.560Z,20.55
2022-11-20T06:38:28.017Z,19.98
2022-11-20T06:40:55.353Z,19.95
2022-11-20T06:43:22.783Z,19.85
2022-11-20T06:45:54.726Z,21.65
2022-11-20T06:48:21.973Z,20.75
2022-11-20T06:50:48.783Z,21.67
2022-11-20T06:53:15.890Z,21.17
2022-11-20T06:55:47.254Z,20.65
2022-11-20T06:58:15.143Z,24.02
2022-11-20T07:00:41.981Z,26.85
2022-11-20T07:03:10.361Z,23.38
2022-11-20T07:05:37.430Z,21.90
2022-11-20T07:08:04.402Z,21.85
2022-11-20T07:10:30.922Z,24.67
2022-11-20T07:12:57.459Z,22.02
2022-11-20T07:15:26.049Z,23.70
2022-11-20T07:17:52.887Z,21.67
2022-11-20T07:20:19.352Z,24.27
2022-11-20T07:22:46.027Z,22.45
2022-11-20T07:25:12.690Z,21.95
2022-11-20T07:27:39.205Z,23.90
2022-11-20T07:30:06.326Z,27.13
2022-11-20T07:32:32.806Z,21.90
2022-11-20T07:34:59.915Z,21.85
2022-11-20T07:37:26.454Z,22.13
2022-11-20T07:39:52.931Z,22.65
2022-11-20T07:42:19.418Z,21.52
2022-11-20T07:44:45.983Z,22.88
2022-11-20T07:47:12.477Z,23.20
2022-11-20T07:49:38.969Z,23.98
2022-11-20T07:52:05.574Z,21.27
2022-11-20T07:54:32.087Z,22.00
2022-11-20T07:56:58.663Z,22.52
2022-11-20T07:59:25.692Z,20.60
2022-11-20T08:01:52.230Z,21.63
2022-11-20T08:04:18.718Z,22.35
2022-11-20T08:06:45.243Z,22.67
2022-11-20T08:09:11.790Z,22.80
2022-11-20T08:11:56.898Z,44.15
2022-11-20T08:14:23.510Z,24.17
2022-11-20T08:16:50.733Z,23.70
2022-11-20T08:19:19.153Z,21.25
2022-11-20T08:21:46.162Z,31.20
2022-11-20T08:24:13.223Z,22.65
2022-11-20T08:26:40.644Z,21.15
2022-11-20T08:29:07.424Z,22.27
2022-11-20T08:31:34.262Z,20.70
2022-11-20T08:34:00.760Z,21.63
2022-11-20T08:36:34.264Z,23.05
2022-11-20T08:39:00.903Z,22.02
2022-11-20T08:41:34.250Z,21.33
2022-11-20T08:44:03.795Z,20.48
2022-11-20T08:46:44.770Z,21.75
2022-11-20T08:49:13.542Z,20.63
2022-11-20T08:51:40.751Z,21.65
2022-11-20T08:54:07.641Z,20.40
2022-11-20T08:56:34.646Z,21.52
2022-11-20T08:59:31.312Z,21.25
2022-11-20T09:01:47.795Z,22.60
2022-11-20T09:04:15.424Z,22.77
2022-11-20T09:06:42.312Z,22.35
2022-11-20T09:09:08.956Z,23.85
2022-11-20T09:11:36.956Z,20.90
2022-11-20T09:14:03.856Z,21.83
2022-11-20T09:16:30.743Z,23.48
2022-11-20T09:19:20.623Z,23.83
2022-11-20T09:21:43.972Z,25.15
2022-11-20T09:24:10.613Z,22.80
2022-11-20T09:26:37.247Z,24.98
2022-11-20T09:29:04.006Z,21.95
2022-11-20T09:31:30.549Z,24.77
2022-11-20T09:33:57.045Z,22.50
2022-11-20T09:36:23.711Z,22.58
2022-11-20T09:38:50.225Z,22.48
2022-11-20T09:41:57.011Z,23.75
2022-11-20T09:44:45.194Z,23.25
2022-11-20T09:47:37.836Z,19.60
2022-11-20T09:50:32.111Z,23.48
2022-11-20T09:53:11.181Z,24.67
2022-11-20T09:55:38.639Z,24.90
2022-11-20T09:58:17.623Z,25.67
2022-11-20T10:00:45.442Z,22.35
2022-11-20T10:03:27.841Z,22.70
2022-11-20T10:05:55.977Z,23.85
2022-11-20T10:08:45.459Z,25.40
2022-11-20T10:11:24.714Z,21.60
2022-11-20T10:14:16.938Z,21.00
2022-11-20T10:17:04.975Z,22.67
2022-11-20T10:20:06.842Z,23.10
2022-11-20T10:23:04.100Z,23.08
2022-11-20T10:25:41.249Z,21.45
2022-11-20T10:28:16.775Z,21.45
2022-11-20T10:30:47.055Z,21.73
2022-11-20T10:33:29.055Z,20.48
2022-11-20T10:36:14.903Z,21.33
2022-11-20T10:38:45.909Z,24.65
2022-11-20T10:44:02.943Z,22.88
2022-11-20T10:46:38.787Z,19.58
2022-11-20T10:49:12.600Z,21.90
2022-11-20T10:51:45.301Z,21.55
2022-11-20T10:54:23.077Z,21.83
2022-11-20T10:57:00.638Z,21.35
2022-11-20T10:59:43.427Z,23.38
2022-11-20T11:02:22.898Z,21.45
2022-11-20T11:04:54.352Z,23.92
2022-11-20T11:07:24.165Z,25.58
2022-11-20T11:09:55.982Z,23.60
2022-11-20T11:12:27.414Z,20.67
2022-11-20T11:14:57.114Z,24.08
2022-11-20T11:17:31.368Z,21.17
2022-11-20T11:20:04.694Z,21.17
2022-11-20T11:22:33.545Z,21.13
2022-11-20T11:25:01.038Z,21.25
2022-11-20T11:27:27.914Z,19.10
2022-11-20T11:30:14.705Z,20.85
2022-11-20T11:32:41.388Z,17.80
2022-11-20T11:35:26.548Z,18.75
2022-11-20T11:38:13.610Z,19.17
2022-11-20T11:40:41.689Z,17.48
2022-11-20T11:43:38.466Z,18.98
2022-11-20T11:46:30.159Z,17.92
2022-11-20T11:49:05.768Z,18.75
2022-11-20T11:51:51.288Z,20.85
2022-11-20T11:54:26.503Z,18.30
2022-11-20T11:56:54.882Z,17.83
2022-11-20T11:59:55.762Z,18.33
2022-11-20T12:02:51.211Z,17.20
2022-11-20T12:05:59.805Z,17.63
2022-11-20T12:08:36.823Z,18.85
2022-11-20T12:11:32.110Z,19.25
2022-11-20T12:14:25.268Z,18.60
2022-11-20T12:16:53.837Z,16.15
2022-11-20T12:19:21.259Z,17.75
2022-11-20T12:22:25.715Z,17.25
2022-11-20T12:25:09.969Z,19.55
2022-11-20T12:27:48.587Z,19.02
2022-11-20T12:30:20.501Z,18.58
2022-11-20T12:32:56.425Z,17.30
2022-11-20T12:36:00.531Z,18.08
2022-11-20T12:38:59.479Z,18.42
2022-11-20T12:42:03.020Z,18.30
2022-11-20T12:45:12.179Z,20.40
2022-11-20T12:48:24.494Z,18.92
2022-11-20T12:51:28.622Z,18.15
2022-11-20T12:54:01.146Z,19.33
2022-11-20T12:56:46.622Z,18.85
2022-11-20T12:59:51.151Z,18.77
2022-11-20T13:02:42.499Z,21.83
2022-11-20T13:05:28.325Z,20.15
2022-11-20T13:07:56.083Z,16.83
2022-11-20T13:10:35.220Z,20.92
2022-11-20T13:13:13.321Z,17.38
2022-11-20T13:15:55.296Z,16.85
2022-11-20T13:18:22.293Z,16.05
2022-11-20T13:20:50.619Z,18.15
2022-11-20T13:23:28.700Z,19.92
2022-11-20T13:26:20.092Z,20.38
2022-11-20T13:28:48.502Z,20.02
2022-11-20T13:31:32.509Z,21.58
2022-11-20T13:34:01.005Z,21.05
2022-11-20T13:36:29.761Z,17.45
2022-11-20T13:38:57.378Z,23.95
2022-11-20T13:41:29.781Z,21.45
2022-11-20T13:44:08.865Z,21.55
2022-11-20T13:46:42.131Z,23.27
2022-11-20T13:49:19.483Z,21.40
2022-11-20T13:51:51.784Z,22.92
2022-11-20T13:54:52.970Z,22.23
2022-11-20T13:57:25.643Z,21.50
2022-11-20T14:00:13.203Z,22.02
2022-11-20T14:05:14.645Z,23.83
2022-11-20T14:07:43.600Z,22.13
2022-11-20T14:10:31.106Z,23.50
2022-11-20T14:12:58.853Z,21.92
2022-11-20T14:15:30.838Z,31.55
2022-11-20T14:17:58.733Z,23.02
2022-11-20T14:23:12.897Z,23.15
2022-11-20T14:25:44.342Z,23.27
2022-11-20T14:28:28.450Z,22.48
2022-11-20T14:30:56.666Z,23.08
2022-11-20T14:33:28.529Z,22.05
2022-11-20T14:35:57.488Z,22.25
2022-11-20T14:38:29.861Z,19.90
2022-11-20T14:41:10.499Z,24.67
2022-11-20T14:43:38.759Z,21.20
2022-11-20T14:46:12.165Z,19.98
2022-11-20T14:48:51.201Z,21.60
2022-11-20T14:51:28.303Z,23.52
2022-11-20T14:53:54.978Z,22.02
2022-11-20T14:56:28.082Z,21.30
2022-11-20T14:58:59.567Z,20.02
2022-11-20T15:01:29.122Z,22.45
2022-11-20T15:04:08.976Z,21.80
2022-11-20T15:06:36.230Z,21.65
2022-11-20T15:09:06.507Z,22.20
2022-11-20T15:11:36.873Z,22.75
2022-11-20T15:14:06.960Z,22.08
2022-11-20T15:16:33.820Z,20.63
2022-11-20T15:19:01.406Z,22.75
2022-11-20T15:21:31.194Z,24.38
2022-11-20T15:23:59.433Z,21.08
2022-11-20T15:26:29.405Z,21.23
2022-11-20T15:28:56.146Z,20.88
2022-11-20T15:31:24.777Z,22.23
2022-11-20T15:33:52.068Z,21.55
2022-11-20T15:36:18.698Z,23.45
2022-11-20T15:38:48.097Z,21.67
2022-11-20T15:41:14.654Z,22.30
2022-11-20T15:43:43.983Z,19.33
2022-11-20T15:46:15.038Z,20.45
2022-11-20T15:51:47.831Z,19.00
2022-11-20T15:54:18.809Z,21.65
2022-11-20T15:56:45.309Z,21.80
2022-11-20T15:59:11.878Z,20.85
2022-11-20T16:01:38.845Z,22.85
2022-11-20T16:04:09.867Z,22.92
2022-11-20T16:06:36.349Z,20.55
2022-11-20T16:09:03.150Z,22.33
2022-11-20T16:11:29.645Z,22.20
2022-11-20T16:14:14.982Z,20.55
2022-11-20T16:16:42.791Z,19.65
2022-11-20T16:19:13.660Z,22.88
2022-11-20T16:21:43.590Z,22.65
2022-11-20T16:24:13.809Z,22.17
2022-11-20T16:26:41.140Z,22.50
2022-11-20T16:29:11.238Z,20.10
2022-11-20T16:31:38.071Z,17.42
2022-11-20T16:34:11.850Z,21.20
2022-11-20T16:36:44.612Z,21.15
2022-11-20T16:39:22.078Z,25.70
2022-11-20T16:41:50.132Z,18.15
2022-11-20T16:44:23.976Z,22.58
2022-11-20T16:46:50.681Z,20.60
2022-11-20T16:49:17.378Z,21.95
2022-11-20T16:51:44.410Z,18.90
2022-11-20T16:54:21.096Z,19.55
2022-11-20T16:59:15.319Z,19.75
2022-11-20T17:01:43.196Z,19.13
2022-11-20T17:04:09.829Z,19.27
2022-11-20T17:06:42.103Z,21.20
2022-11-20T17:09:09.862Z,19.67
2022-11-20T17:11:39.652Z,19.27
2022-11-20T17:14:10.144Z,22.27
2022-11-20T17:16:41.791Z,19.45
2022-11-20T17:19:11.592Z,19.73
2022-11-20T17:21:48.774Z,19.45
2022-11-20T17:24:27.809Z,22.38
2022-11-20T17:27:09.873Z,18.63
2022-11-20T17:29:41.765Z,17.42
2022-11-20T17:32:13.016Z,20.23
2022-11-20T17:34:39.746Z,19.40
2022-11-20T17:37:06.804Z,20.05
2022-11-20T17:39:33.290Z,20.48
2022-11-20T17:42:20.135Z,19.35
2022-11-20T17:44:52.211Z,19.33
2022-11-20T17:47:19.736Z,19.20
2022-11-20T17:49:46.264Z,18.35
2022-11-20T17:52:12.786Z,21.55
2022-11-20T17:54:39.384Z,20.30
2022-11-20T17:57:25.249Z,18.80
2022-11-20T17:59:51.877Z,19.80
2022-11-20T18:02:18.342Z,20.00
2022-11-20T18:04:45.066Z,21.02
2022-11-20T18:07:11.698Z,24.58
2022-11-20T18:09:38.220Z,18.55
2022-11-20T18:12:10.448Z,19.25
2022-11-20T18:14:39.834Z,18.58
2022-11-20T18:17:10.855Z,18.27
2022-11-20T18:20:14.141Z,21.05
2022-11-20T18:22:38.247Z,22.95
2022-11-20T18:25:09.385Z,21.13
2022-11-20T18:30:02.655Z,18.92
2022-11-20T18:32:29.178Z,18.55
2022-11-20T18:34:55.684Z,19.48
2022-11-20T18:37:22.469Z,20.92
2022-11-20T18:39:50.698Z,18.40
2022-11-20T18:42:35.950Z,19.63
2022-11-20T18:45:06.339Z,19.08
2022-11-20T18:47:37.466Z,19.42
2022-11-20T18:52:34.228Z,20.27
2022-11-20T18:55:05.773Z,22.30
2022-11-20T18:57:32.789Z,20.27
2022-11-20T19:00:09.346Z,22.35
2022-11-20T19:02:41.461Z,20.02
2022-11-20T19:05:13.552Z,21.00
2022-11-20T19:07:40.381Z,20.77
2022-11-20T19:10:07.563Z,22.50
2022-11-20T19:12:37.018Z,21.08
2022-11-20T19:15:06.842Z,22.02
2022-11-20T19:17:36.451Z,20.63
2022-11-20T19:20:07.083Z,23.15
2022-11-20T19:22:36.508Z,21.98
2022-11-20T19:25:03.131Z,20.50
2022-11-20T19:27:29.708Z,21.63
2022-11-20T19:30:03.106Z,24.67
2022-11-20T19:32:30.029Z,21.75
2022-11-20T19:34:56.666Z,21.13
2022-11-20T19:37:25.259Z,21.65
2022-11-20T19:39:51.777Z,21.77
2022-11-20T19:42:18.647Z,23.35
2022-11-20T19:44:45.123Z,22.10
2022-11-20T19:47:14.503Z,20.75
2022-11-20T19:49:44.977Z,23.02
2022-11-20T19:52:11.506Z,23.50
2022-11-20T19:54:38.078Z,25.40
2022-11-20T19:57:04.932Z,22.88
2022-11-20T19:59:31.461Z,26.13
2022-11-20T20:01:58.416Z,23.65
2022-11-20T20:04:28.017Z,23.52
2022-11-20T20:06:58.211Z,21.38
2022-11-20T20:09:26.956Z,25.30
2022-11-20T20:11:53.730Z,22.77
2022-11-20T20:14:23.187Z,26.27
2022-11-20T20:16:49.728Z,22.80
2022-11-20T20:19:16.624Z,24.00
2022-11-20T20:21:44.097Z,24.77
2022-11-20T20:24:11.965Z,23.98
2022-11-20T20:26:38.704Z,24.20
2022-11-20T20:29:05.232Z,25.20
2022-11-20T20:31:33.680Z,25.48
2022-11-20T20:34:03.982Z,25.45
2022-11-20T20:36:30.658Z,25.83
2022-11-20T20:39:05.130Z,25.63
2022-11-20T20:41:31.852Z,23.42
2022-11-20T20:44:16.905Z,27.10
2022-11-20T20:46:43.908Z,25.17
2022-11-20T20:49:10.502Z,25.45
2022-11-20T20:51:37.343Z,26.13
2022-11-20T20:54:04.583Z,25.20
2022-11-20T20:56:31.218Z,25.20
2022-11-20T20:58:57.974Z,24.77
2022-11-20T21:01:28.728Z,25.05
2022-11-20T21:03:57.378Z,27.13
2022-11-20T21:06:24.625Z,27.05
2022-11-20T21:08:51.124Z,27.02
2022-11-20T21:11:19.228Z,27.67
2022-11-20T21:13:47.111Z,25.33
2022-11-20T21:16:15.915Z,27.17
2022-11-20T21:18:42.508Z,27.33
2022-11-20T21:21:30.869Z,27.17
2022-11-20T21:24:08.009Z,26.30
2022-11-20T21:29:01.095Z,24.90
2022-11-20T21:31:28.596Z,25.48
2022-11-20T21:33:56.816Z,27.02
2022-11-20T21:36:28.837Z,26.45
2022-11-20T21:38:56.550Z,27.27
2022-11-20T21:41:24.969Z,25.70
2022-11-20T21:44:23.655Z,26.67
2022-11-20T21:46:40.768Z,26.08
2022-11-20T21:49:07.805Z,29.00
2022-11-20T21:51:34.405Z,27.58
2022-11-20T21:54:01.397Z,30.27
2022-11-20T21:56:27.979Z,30.00
2022-11-20T21:58:55.244Z,28.63
2022-11-20T22:01:26.023Z,27.90
2022-11-20T22:03:57.249Z,28.13
2022-11-20T22:06:32.446Z,27.02
2022-11-20T22:08:59.274Z,28.17
2022-11-20T22:11:25.923Z,27.73
2022-11-20T22:14:11.319Z,27.65
2022-11-20T22:16:38.358Z,28.60
2022-11-20T22:19:06.200Z,27.55
2022-11-20T22:21:33.038Z,29.00
2022-11-20T22:24:00.133Z,28.20
2022-11-20T22:26:29.457Z,29.05
2022-11-20T22:28:58.382Z,28.00
2022-11-20T22:31:27.310Z,29.95
2022-11-20T22:33:54.131Z,28.63
2022-11-20T22:36:26.431Z,28.85
2022-11-20T22:38:52.900Z,27.80
2022-11-20T22:41:25.199Z,30.55
2022-11-20T22:44:02.006Z,30.05
2022-11-20T22:46:30.703Z,29.35
2022-11-20T22:49:02.899Z,30.38
2022-11-20T22:51:35.198Z,29.63
2022-11-20T22:54:03.679Z,27.95
2022-11-20T22:56:30.411Z,33.17
2022-11-20T22:58:56.987Z,32.92
2022-11-20T23:01:34.348Z,31.02
2022-11-20T23:04:03.412Z,31.17
2022-11-20T23:06:32.130Z,31.13
2022-11-20T23:08:58.683Z,30.70
2022-11-20T23:11:30.071Z,30.38
2022-11-20T23:14:02.902Z,31.30
2022-11-20T23:16:30.454Z,30.00
2022-11-20T23:19:01.722Z,31.73
2022-11-20T23:21:28.754Z,32.53
2022-11-20T23:23:59.794Z,31.63
2022-11-20T23:26:32.336Z,32.97
2022-11-20T23:29:00.933Z,32.05
2022-11-20T23:31:33.003Z,32.67
2022-11-20T23:34:00.342Z,34.03
2022-11-20T23:36:27.219Z,32.88
2022-11-20T23:38:53.829Z,32.83
2022-11-20T23:41:20.466Z,33.35
2022-11-20T23:43:46.931Z,32.88
2022-11-20T23:46:16.527Z,31.63
2022-11-20T23:48:45.068Z,31.70
2022-11-20T23:51:11.934Z,33.58
2022-11-20T23:53:38.531Z,31.60
2022-11-20T23:56:05.540Z,35.72
2022-11-20T23:58:34.321Z,33.78
